Tivoli — WDF8727 — position and weather

sailwx.info

Track history (hours):
 
Tides and Currents Weather Stations Pressure Air Temp Water Temp Dewpoint Dewpoint Depression Visibility Wind Speed Wind Dir Waves Ship Positions

Tivoli

Owner: Naeve, Clayton W, Cordova, TN. More information available from US FCC via Universal Licensing System and Coast Guard Vessel Documentation Center.

Last reported at 2017-Oct-13 13:50 UTC. Time now 2017-Oct-19 23:32 UTC.
Position N 36°45' W 076°18'.

Length 17 m.

Type: Pleasure craft. MMSI: 367497930.

Date/timePositionNaut miles runAvg speedWind from/ knotsBaromVisibWave heightAir tempDewpointWater temp
2017-Oct-13 13:50N 36°45' W 076°18'2 5.5
2017-Oct-13 13:30N 36°47' W 076°18'3 0.2
2017-Oct-12 22:51N 36°51' W 076°18'0 0.0
2017-Oct-12 22:24N 36°51' W 076°18'0 0.0
2017-Oct-12 18:24N 36°51' W 076°18'0 0.0
2017-Oct-12 17:54N 36°51' W 076°18'  
2017-Oct-07 12:36N 38°53' W 076°15'3 7.6
2017-Oct-07 12:15N 38°50' W 076°14'3 0.7
2017-Oct-07 07:39N 38°47' W 076°13'0 0.0
2017-Oct-07 05:00N 38°47' W 076°13'0 0.0
2017-Oct-06 08:00N 38°47' W 076°13'11 0.8
2017-Oct-05 17:53N 38°54' W 076°24'3 8.4
2017-Oct-05 17:30N 38°57' W 076°24'4 8.7
2017-Oct-05 17:00N 39°01' W 076°22'23 8.3
2017-Oct-05 14:14N 39°22' W 076°09'2 7.9
2017-Oct-05 14:00N 39°23' W 076°07'4 7.6
2017-Oct-05 13:28N 39°23' W 076°02'2 4.7
2017-Oct-05 12:59N 39°22' W 075°59'0 0.0
2017-Oct-05 12:20N 39°22' W 075°59'0 0.0
2017-Oct-05 11:59N 39°22' W 075°59'0 0.0
2017-Oct-05 11:23N 39°22' W 075°59'0 0.0
2017-Oct-05 10:59N 39°22' W 075°59'0 0.0
2017-Oct-05 10:29N 39°22' W 075°59'0 0.0
2017-Oct-05 09:56N 39°22' W 075°59'0 0.0
2017-Oct-05 09:29N 39°22' W 075°59'0 0.0
2017-Oct-05 08:59N 39°22' W 075°59'0 0.0
2017-Oct-05 08:14N 39°22' W 075°59'0 0.0
2017-Oct-05 07:53N 39°22' W 075°59'0 0.0
2017-Oct-05 07:23N 39°22' W 075°59'0 0.0
2017-Oct-05 06:59N 39°22' W 075°59'0 0.0
2017-Oct-05 06:30N 39°22' W 075°59'0 0.0
2017-Oct-05 05:56N 39°22' W 075°59'0 0.0
2017-Oct-05 05:20N 39°22' W 075°59'0 0.0
2017-Oct-05 01:30N 39°22' W 075°59'0 0.0
2017-Oct-05 01:00N 39°22' W 075°59'0 0.0
2017-Oct-05 00:24N 39°22' W 075°59'0 0.0
2017-Oct-05 00:00N 39°22' W 075°59'0 0.0
2017-Oct-04 23:30N 39°22' W 075°59'0 0.0
2017-Oct-04 22:51N 39°22' W 075°59'0 0.0
2017-Oct-04 22:24N 39°22' W 075°59'0 0.0
2017-Oct-04 22:00N 39°22' W 075°59'0 0.0
2017-Oct-04 21:30N 39°22' W 075°59'4 3.4
2017-Oct-04 20:09N 39°26' W 075°60'1 7.5
2017-Oct-04 19:58N 39°28' W 075°59'4 7.9
2017-Oct-04 19:30N 39°30' W 075°55'4 7.9
2017-Oct-04 19:00N 39°32' W 075°51'4 8.0
2017-Oct-04 18:29N 39°32' W 075°46'4 8.5
2017-Oct-04 18:00N 39°33' W 075°40'4 8.4
2017-Oct-04 17:30N 39°33' W 075°35'3 5.2
2017-Oct-04 17:00N 39°31' W 075°33'4 7.0
2017-Oct-04 16:30N 39°28' W 075°33'4 7.4
2017-Oct-04 16:00N 39°25' W 075°31'4 7.7
2017-Oct-04 15:30N 39°22' W 075°27'4 7.9
2017-Oct-04 15:00N 39°19' W 075°24'4 8.2
2017-Oct-04 14:30N 39°16' W 075°20'4 8.2
2017-Oct-04 13:58N 39°12' W 075°17'4 8.1
2017-Oct-04 13:28N 39°09' W 075°15'  
Track history (hours):
 
Tides and Currents Weather Stations Pressure Air Temp Water Temp Dewpoint Dewpoint Depression Visibility Wind Speed Wind Dir Waves Ship Positions

Tivoli

Owner: Naeve, Clayton W, Cordova, TN. More information available from US FCC via Universal Licensing System and Coast Guard Vessel Documentation Center.

Last reported at 2017-Oct-13 13:50 UTC. Time now 2017-Oct-19 23:32 UTC.
Position N 36°45' W 076°18'.

Length 17 m.

Type: Pleasure craft. MMSI: 367497930.

Date/timePositionNaut miles runAvg speedWind from/ knotsBaromVisibWave heightAir tempDewpointWater temp
2017-Oct-13 13:50N 36°45' W 076°18'2 5.5
2017-Oct-13 13:30N 36°47' W 076°18'3 0.2
2017-Oct-12 22:51N 36°51' W 076°18'0 0.0
2017-Oct-12 22:24N 36°51' W 076°18'0 0.0
2017-Oct-12 18:24N 36°51' W 076°18'0 0.0
2017-Oct-12 17:54N 36°51' W 076°18'  
2017-Oct-07 12:36N 38°53' W 076°15'3 7.6
2017-Oct-07 12:15N 38°50' W 076°14'3 0.7
2017-Oct-07 07:39N 38°47' W 076°13'0 0.0
2017-Oct-07 05:00N 38°47' W 076°13'0 0.0
2017-Oct-06 08:00N 38°47' W 076°13'11 0.8
2017-Oct-05 17:53N 38°54' W 076°24'3 8.4
2017-Oct-05 17:30N 38°57' W 076°24'4 8.7
2017-Oct-05 17:00N 39°01' W 076°22'23 8.3
2017-Oct-05 14:14N 39°22' W 076°09'2 7.9
2017-Oct-05 14:00N 39°23' W 076°07'4 7.6
2017-Oct-05 13:28N 39°23' W 076°02'2 4.7
2017-Oct-05 12:59N 39°22' W 075°59'0 0.0
2017-Oct-05 12:20N 39°22' W 075°59'0 0.0
2017-Oct-05 11:59N 39°22' W 075°59'0 0.0
2017-Oct-05 11:23N 39°22' W 075°59'0 0.0
2017-Oct-05 10:59N 39°22' W 075°59'0 0.0
2017-Oct-05 10:29N 39°22' W 075°59'0 0.0
2017-Oct-05 09:56N 39°22' W 075°59'0 0.0
2017-Oct-05 09:29N 39°22' W 075°59'0 0.0
2017-Oct-05 08:59N 39°22' W 075°59'0 0.0
2017-Oct-05 08:14N 39°22' W 075°59'0 0.0
2017-Oct-05 07:53N 39°22' W 075°59'0 0.0
2017-Oct-05 07:23N 39°22' W 075°59'0 0.0
2017-Oct-05 06:59N 39°22' W 075°59'0 0.0
2017-Oct-05 06:30N 39°22' W 075°59'0 0.0
2017-Oct-05 05:56N 39°22' W 075°59'0 0.0
2017-Oct-05 05:20N 39°22' W 075°59'0 0.0
2017-Oct-05 01:30N 39°22' W 075°59'0 0.0
2017-Oct-05 01:00N 39°22' W 075°59'0 0.0
2017-Oct-05 00:24N 39°22' W 075°59'0 0.0
2017-Oct-05 00:00N 39°22' W 075°59'0 0.0
2017-Oct-04 23:30N 39°22' W 075°59'0 0.0
2017-Oct-04 22:51N 39°22' W 075°59'0 0.0
2017-Oct-04 22:24N 39°22' W 075°59'0 0.0
2017-Oct-04 22:00N 39°22' W 075°59'0 0.0
2017-Oct-04 21:30N 39°22' W 075°59'4 3.4
2017-Oct-04 20:09N 39°26' W 075°60'1 7.5
2017-Oct-04 19:58N 39°28' W 075°59'4 7.9
2017-Oct-04 19:30N 39°30' W 075°55'4 7.9
2017-Oct-04 19:00N 39°32' W 075°51'4 8.0
2017-Oct-04 18:29N 39°32' W 075°46'4 8.5
2017-Oct-04 18:00N 39°33' W 075°40'4 8.4
2017-Oct-04 17:30N 39°33' W 075°35'3 5.2
2017-Oct-04 17:00N 39°31' W 075°33'4 7.0
2017-Oct-04 16:30N 39°28' W 075°33'4 7.4
2017-Oct-04 16:00N 39°25' W 075°31'4 7.7
2017-Oct-04 15:30N 39°22' W 075°27'4 7.9
2017-Oct-04 15:00N 39°19' W 075°24'4 8.2
2017-Oct-04 14:30N 39°16' W 075°20'4 8.2
2017-Oct-04 13:58N 39°12' W 075°17'4 8.1
2017-Oct-04 13:28N 39°09' W 075°15'  

Dump ship's entire track history